createdAt,value
2019-01-15T00:02:54.340Z,2.20
2019-01-15T00:07:45.243Z,3.60
2019-01-15T00:12:36.362Z,3.10
2019-01-15T00:17:27.259Z,2.03
2019-01-15T00:22:18.235Z,2.40
2019-01-15T00:27:09.148Z,2.20
2019-01-15T00:32:00.070Z,2.77
2019-01-15T00:36:50.969Z,2.73
2019-01-15T00:41:41.871Z,2.23
2019-01-15T00:46:32.766Z,2.30
2019-01-15T00:51:23.731Z,2.13
2019-01-15T00:56:14.622Z,2.60
2019-01-15T01:01:05.566Z,2.67
2019-01-15T01:05:56.454Z,2.10
2019-01-15T01:10:47.359Z,2.37
2019-01-15T01:15:38.997Z,2.43
2019-01-15T01:20:29.966Z,2.03
2019-01-15T01:25:20.853Z,2.50
2019-01-15T01:30:14.620Z,2.40
2019-01-15T01:35:06.236Z,3.87
2019-01-15T01:39:57.862Z,3.17
2019-01-15T01:44:48.850Z,4.03
2019-01-15T01:49:39.753Z,2.90
2019-01-15T01:54:30.645Z,3.13
2019-01-15T01:59:22.325Z,2.60
2019-01-15T02:04:13.212Z,2.77
2019-01-15T02:09:04.222Z,3.00
2019-01-15T02:13:55.838Z,3.37
2019-01-15T02:18:46.774Z,3.00
2019-01-15T02:23:38.448Z,2.90
2019-01-15T02:28:29.338Z,2.30
2019-01-15T02:33:20.235Z,3.07
2019-01-15T02:38:11.868Z,3.47
2019-01-15T02:43:03.563Z,2.60
2019-01-15T02:47:54.467Z,3.10
2019-01-15T02:52:45.358Z,2.70
2019-01-15T02:57:36.313Z,2.47
2019-01-15T03:02:27.206Z,2.40
2019-01-15T03:07:18.104Z,2.57
2019-01-15T03:12:09.068Z,2.80
2019-01-15T03:16:59.958Z,3.07
2019-01-15T03:21:50.883Z,2.40
2019-01-15T03:26:41.768Z,2.90
2019-01-15T03:31:33.466Z,2.20
2019-01-15T03:36:24.357Z,2.60
2019-01-15T03:41:15.254Z,2.50
2019-01-15T03:46:06.945Z,2.90
2019-01-15T03:50:57.837Z,3.17
2019-01-15T03:55:48.731Z,3.27
2019-01-15T04:00:40.368Z,2.43
2019-01-15T04:05:32.046Z,2.83
2019-01-15T04:10:22.931Z,3.20
2019-01-15T04:15:13.837Z,2.43
2019-01-15T04:20:05.478Z,2.70
2019-01-15T04:24:57.197Z,2.20
2019-01-15T04:29:48.832Z,2.57
2019-01-15T04:34:39.735Z,3.33
2019-01-15T04:39:30.661Z,2.80
2019-01-15T04:44:21.560Z,3.03
2019-01-15T04:49:12.468Z,3.47
2019-01-15T04:54:03.398Z,3.62
2019-01-15T04:58:54.294Z,3.28
2019-01-15T05:03:45.177Z,3.37
2019-01-15T05:08:36.857Z,1.90
2019-01-15T05:13:27.781Z,2.70
2019-01-15T05:18:19.209Z,2.70
2019-01-15T05:23:10.206Z,2.90
2019-01-15T05:28:01.087Z,3.20
2019-01-15T05:32:52.073Z,2.57
2019-01-15T05:37:42.986Z,2.83
2019-01-15T05:42:33.889Z,2.10
2019-01-15T05:47:24.830Z,3.60
2019-01-15T05:52:16.573Z,3.17
2019-01-15T05:57:07.496Z,2.10
2019-01-15T06:01:58.376Z,3.53
2019-01-15T06:06:49.343Z,2.10
2019-01-15T06:11:40.254Z,2.37
2019-01-15T06:16:31.149Z,1.93
2019-01-15T06:21:22.078Z,2.50
2019-01-15T06:26:12.962Z,3.30
2019-01-15T06:31:04.633Z,2.47
2019-01-15T06:35:55.512Z,2.77
2019-01-15T06:40:47.201Z,1.80
2019-01-15T06:45:38.119Z,2.47
2019-01-15T06:50:29.045Z,2.40
2019-01-15T06:55:19.921Z,2.10
2019-01-15T07:00:12.720Z,2.70
2019-01-15T07:05:03.600Z,2.23
2019-01-15T07:09:54.556Z,2.78
2019-01-15T07:14:45.450Z,2.53
2019-01-15T07:19:36.382Z,2.20
2019-01-15T07:24:27.313Z,3.00
2019-01-15T07:29:18.221Z,2.03
2019-01-15T07:34:09.152Z,2.00
2019-01-15T07:39:00.064Z,1.70
2019-01-15T07:43:50.978Z,1.90
2019-01-15T07:48:41.897Z,1.33
2019-01-15T07:53:32.816Z,2.17
2019-01-15T07:58:23.699Z,1.67
2019-01-15T08:03:15.329Z,2.30
2019-01-15T08:08:07.072Z,1.60
2019-01-15T08:12:57.965Z,1.77
2019-01-15T08:17:49.671Z,2.10
2019-01-15T08:22:40.557Z,2.13
2019-01-15T08:27:31.498Z,1.50
2019-01-15T08:32:22.373Z,1.60
2019-01-15T08:37:13.994Z,1.70
2019-01-15T08:42:04.969Z,2.60
2019-01-15T08:47:02.806Z,2.20
2019-01-15T08:51:54.449Z,1.90
2019-01-15T08:56:45.348Z,1.80
2019-01-15T09:01:36.241Z,2.10
2019-01-15T09:06:27.120Z,2.27
2019-01-15T09:11:18.005Z,2.10
2019-01-15T09:16:08.898Z,2.13
2019-01-15T09:21:00.529Z,2.03
2019-01-15T09:25:51.441Z,1.80
2019-01-15T09:30:42.329Z,2.30
2019-01-15T09:35:33.213Z,1.70
2019-01-15T09:40:24.106Z,1.50
2019-01-15T09:45:16.035Z,2.20
2019-01-15T09:50:06.912Z,2.10
2019-01-15T09:54:58.545Z,2.13
2019-01-15T09:59:50.164Z,1.73
2019-01-15T10:04:41.058Z,2.30
2019-01-15T10:09:31.934Z,3.47
2019-01-15T10:14:22.887Z,2.70
2019-01-15T10:19:13.785Z,2.47
2019-01-15T10:24:04.668Z,2.63
2019-01-15T10:28:56.293Z,2.17
2019-01-15T10:33:47.917Z,3.00
2019-01-15T10:38:38.844Z,2.50
2019-01-15T10:43:29.732Z,3.20
2019-01-15T10:48:20.625Z,2.60
2019-01-15T10:53:11.517Z,3.08
2019-01-15T10:58:03.197Z,3.23
2019-01-15T11:02:54.087Z,3.50
2019-01-15T11:07:44.988Z,3.47
2019-01-15T11:12:36.622Z,3.00
2019-01-15T11:17:28.240Z,3.80
2019-01-15T11:22:19.226Z,2.80
2019-01-15T11:27:10.120Z,2.80
2019-01-15T11:32:01.057Z,4.10
2019-01-15T11:36:51.956Z,4.45
2019-01-15T11:41:42.879Z,4.30
2019-01-15T11:46:33.762Z,4.23
2019-01-15T11:51:25.413Z,4.23
2019-01-15T11:56:17.085Z,5.13
2019-01-15T12:01:07.973Z,6.30
2019-01-15T12:06:05.159Z,4.43
2019-01-15T12:11:15.953Z,5.40
2019-01-15T12:16:08.749Z,6.27
2019-01-15T12:20:59.637Z,5.60
2019-01-15T12:25:52.308Z,5.30
2019-01-15T12:30:43.189Z,5.60
2019-01-15T12:35:34.127Z,5.50
2019-01-15T12:45:45.407Z,7.20
2019-01-15T12:55:59.304Z,7.67
2019-01-15T13:00:57.166Z,8.30
2019-01-15T13:05:53.516Z,8.77
2019-01-15T13:10:49.129Z,7.60
2019-01-15T13:15:40.021Z,8.00
2019-01-15T13:20:30.916Z,8.63
2019-01-15T13:25:22.573Z,9.07
2019-01-15T13:30:17.289Z,9.50
2019-01-15T13:35:08.187Z,9.50
2019-01-15T13:40:02.022Z,11.60
2019-01-15T13:44:53.029Z,11.60
2019-01-15T13:49:46.751Z,10.90
2019-01-15T13:54:40.351Z,10.37
2019-01-15T13:59:34.145Z,11.10
2019-01-15T14:04:25.035Z,11.70
2019-01-15T14:09:23.661Z,11.13
2019-01-15T14:14:14.605Z,14.38
2019-01-15T14:24:35.432Z,13.20
2019-01-15T14:29:32.457Z,12.60
2019-01-15T14:34:28.110Z,12.10
2019-01-15T14:39:20.781Z,12.07
2019-01-15T14:49:36.037Z,13.00
2019-01-15T14:54:29.989Z,14.00
2019-01-15T15:04:40.485Z,13.80
2019-01-15T15:09:38.381Z,10.77
2019-01-15T15:14:31.242Z,11.57
2019-01-15T15:19:23.187Z,11.87
2019-01-15T15:24:14.136Z,11.93
2019-01-15T15:29:05.918Z,12.57
2019-01-15T15:34:01.685Z,16.83
2019-01-15T15:39:06.470Z,14.90
2019-01-15T15:44:00.260Z,13.90
2019-01-15T15:48:51.258Z,15.10
2019-01-15T15:53:42.234Z,17.03
2019-01-15T15:58:33.856Z,15.60
2019-01-15T16:03:30.508Z,14.53
2019-01-15T16:08:26.162Z,14.90
2019-01-15T16:13:23.089Z,15.27
2019-01-15T16:18:17.016Z,17.65
2019-01-15T16:23:14.003Z,15.70
2019-01-15T16:33:34.377Z,17.92
2019-01-15T16:38:31.462Z,14.07
2019-01-15T16:48:46.486Z,17.50
2019-01-15T16:53:44.073Z,15.23
2019-01-15T16:58:37.741Z,15.73
2019-01-15T17:08:50.674Z,15.30
2019-01-15T17:13:46.751Z,12.30
2019-01-15T17:18:43.825Z,13.27
2019-01-15T17:23:36.781Z,12.03
2019-01-15T17:28:33.755Z,12.23
2019-01-15T17:38:50.568Z,10.90
2019-01-15T17:43:47.679Z,10.77
2019-01-15T17:48:38.620Z,11.33
2019-01-15T17:53:31.415Z,10.23
2019-01-15T17:58:23.784Z,10.50
2019-01-15T18:03:16.419Z,9.37
2019-01-15T18:08:13.469Z,11.93
2019-01-15T18:13:04.409Z,11.40
2019-01-15T18:18:02.204Z,10.70
2019-01-15T18:23:00.077Z,9.50
2019-01-15T18:27:51.070Z,9.60
2019-01-15T18:32:41.992Z,8.87
2019-01-15T18:37:32.896Z,8.90
2019-01-15T18:42:26.644Z,9.00
2019-01-15T18:47:23.661Z,10.55
2019-01-15T18:52:19.475Z,9.93
2019-01-15T18:57:17.408Z,8.80
2019-01-15T19:02:09.118Z,9.03
2019-01-15T19:07:06.213Z,9.77
2019-01-15T19:12:01.867Z,8.63
2019-01-15T19:16:53.876Z,9.33
2019-01-15T19:21:45.631Z,9.80
2019-01-15T19:26:42.295Z,11.57
2019-01-15T19:31:39.399Z,11.00
2019-01-15T19:36:30.301Z,9.00
2019-01-15T19:41:27.145Z,10.57
2019-01-15T19:46:24.303Z,9.07
2019-01-15T19:51:33.170Z,10.07
2019-01-15T19:56:24.110Z,10.30
2019-01-15T20:01:16.127Z,11.82
2019-01-15T20:06:07.062Z,11.20
2019-01-15T20:11:04.294Z,10.10
2019-01-15T20:15:55.185Z,9.97
2019-01-15T20:20:47.627Z,10.00
2019-01-15T20:25:39.326Z,10.23
2019-01-15T20:30:34.270Z,9.47
2019-01-15T20:35:28.277Z,9.63
2019-01-15T20:40:21.061Z,11.53
2019-01-15T20:45:18.053Z,10.73
2019-01-15T20:50:12.837Z,8.20
2019-01-15T20:55:03.798Z,8.30
2019-01-15T20:59:58.753Z,8.20
2019-01-15T21:04:50.415Z,8.33
2019-01-15T21:09:43.271Z,8.67
2019-01-15T21:14:40.096Z,8.23
2019-01-15T21:19:31.083Z,8.00
2019-01-15T21:24:22.850Z,7.10
2019-01-15T21:29:15.274Z,7.70
2019-01-15T21:34:08.265Z,6.73
2019-01-15T21:44:24.866Z,7.67
2019-01-15T21:49:22.129Z,7.20
2019-01-15T21:54:13.106Z,7.37
2019-01-15T22:04:28.790Z,8.00
2019-01-15T22:09:23.635Z,7.27
2019-01-15T22:14:16.354Z,8.63
2019-01-15T22:19:08.182Z,7.77
2019-01-15T22:24:06.179Z,8.57
2019-01-15T22:29:03.311Z,8.60
2019-01-15T22:33:55.955Z,10.40
2019-01-15T22:38:47.806Z,11.00
2019-01-15T22:43:39.710Z,9.00
2019-01-15T22:48:31.494Z,8.90
2019-01-15T22:53:23.138Z,9.57
2019-01-15T22:58:14.830Z,10.27
2019-01-15T23:03:06.694Z,11.00
2019-01-15T23:08:00.719Z,9.45
2019-01-15T23:12:51.614Z,10.47
2019-01-15T23:17:46.137Z,10.07
2019-01-15T23:22:43.306Z,10.10
2019-01-15T23:27:35.114Z,8.97
2019-01-15T23:32:26.096Z,10.00
2019-01-15T23:37:20.938Z,9.53
2019-01-15T23:42:11.943Z,11.45
2019-01-15T23:47:07.911Z,10.10
2019-01-15T23:52:03.781Z,9.87
